Pt. Reyes RCA field Weather observations

Data are for 10 minute period ending at time listed.
 Day   Time   Solar   Ave.   Ave.  Ave.  Vector    Max.   Stn.   Total 
  of    of     Rad.   Air    Rel.  Wind   Wind     Wind   Baro. Precip.
Year   Day            Temp.  Hum.  Speed  Dir.     Gust   Pres.        
2014   (PST)   W/m2    F      %     mph   deg.      mph    mb.    in.  
-----------------------------------------------------------------------
 205   14:30  765.0    66   68.3    12    312.3    16.5   1010.5  0.00  
 205   14:40  747.0    66   68.9    13    321.5    17.1   1010.2  0.00  
 205   14:50  728.0    66   68.5    14    314.8    17.0   1010.2  0.00  
 205   15:00  707.0    66   68.1    13    312.8    17.2   1009.8  0.00  
 205   15:10  685.0    66   68.5    15    310.4    18.6   1009.8  0.00  
 205   15:20  662.0    66   68.8    15    315.8    19.2   1009.5  0.00  
 205   15:30  638.0    66   68.5    14    321.0    18.6   1009.5  0.00  
 205   15:40  612.0    66   68.1    14    316.9    17.8   1009.5  0.00  
 205   15:50  586.0    66   68.1    14    313.8    18.1   1009.5  0.00  
 205   16:00  561.0    65   70.0    14    312.5    17.6   1009.1  0.00  
 205   16:10  533.0    65   69.8    13    309.7    17.6   1009.1  0.00  
 205   16:20  506.0    65   70.1    13    309.3    17.8   1009.1  0.00  
 205   16:30  478.0    65   71.1    12    311.2    15.7   1009.1  0.00  
 205   16:40  449.0    65   70.6    12    310.7    16.7   1009.1  0.00  
 205   16:50  419.0    64   71.6    14    308.4    16.8   1008.8  0.00  
 205   17:00  388.0    64   72.6    14    316.8    18.0   1008.8  0.00  
 205   17:10  357.0    64   71.3    12    320.3    17.8   1008.8  0.00  
 205   17:20  326.0    64   71.5    12    316.9    16.4   1008.8  0.00  
 205   17:30  295.0    64   72.1    12    313.5    16.4   1008.8  0.00  
 205   17:40  262.0    63   73.9    12    306.6    14.5   1008.8  0.00  
 205   17:50  232.0    63   74.0    12    312.9    16.5   1008.8  0.00  
 205   18:00  202.0    63   74.7    12    314.4    16.1   1008.5  0.00  
 205   18:10  174.0    62   75.9    12    311.6    15.6   1008.5  0.00  
 205   18:20  145.0    62   76.8    12    320.9    16.5   1008.5  0.00  
 205   18:30  118.0    62   77.9    13    316.2    16.4   1008.5  0.00  
 205   18:40   94.0    61   78.8    11    317.5    15.3   1008.5  0.00  
 205   18:50   66.0    61   79.8    12    324.3    15.6   1008.1  0.00  
 205   19:00   43.0    60   81.4    12    318.3    15.0   1008.1  0.00  
 205   19:10   25.0    60   82.9     9    323.4    12.5   1008.1  0.00  
 205   19:20   13.0    59   84.2    11    323.4    15.3   1008.1  0.00  
 205   19:30    6.0    59   85.2    11    318.3    14.5   1008.1  0.00  
 205   19:40    3.0    58   86.3     9    319.4    11.0   1008.1  0.00  
 205   19:50    0.0    58   87.4     9    317.6    12.5   1008.1  0.00  
 205   20:00    0.0    58   87.7     9    319.3    12.3   1008.1  0.00  
 205   20:10    0.0    58   87.7    10    316.3    13.3   1007.8  0.00  
 205   20:20    0.0    58   88.1    10    321.4    12.9   1007.8  0.00  
 205   20:30    0.0    58   88.2     9    321.2    12.1   1007.8  0.00  
 205   20:40    0.0    58   88.5    10    320.4    12.3   1007.8  0.00  
 205   20:50    0.0    58   88.7     9    317.8    11.8   1008.1  0.00  
 205   21:00    0.0    58   89.2     7    321.4     9.6   1007.8  0.00  
 205   21:10    0.0    57   89.6     8    320.3    10.4   1008.1  0.00  
 205   21:20    0.0    57   89.7     8    324.1     9.9   1008.1  0.00  
 205   21:30    0.0    57   89.7     7    325.0     9.9   1007.8  0.00  
 205   21:40    0.0    57   90.3     7    322.8     8.7   1007.8  0.00  
 205   21:50    0.0    57   90.9     8    324.0    10.3   1007.8  0.00  
 205   22:00    0.0    57   90.3     7    319.2     8.8   1007.8  0.00  
 205   22:10    0.0    57   90.8     7    319.9     9.1   1007.8  0.00  
 205   22:20    0.0    57   91.1     6    318.5    10.0   1007.8  0.00  
 205   22:30    0.0    56   91.2     7    320.2     9.6   1007.8  0.00  
 205   22:40    0.0    56   90.8     7    315.8     9.1   1007.8  0.00  
 205   22:50    0.0    56   91.1     7    308.5     8.8   1007.8  0.00  
 205   23:00    0.0    56   91.5     8    307.4    10.0   1007.8  0.00  
 205   23:10    0.0    56   91.6     8    308.0     9.3   1007.8  0.00  
 205   23:20    0.0    56   91.5     7    310.6     9.1   1007.8  0.00  
 205   23:30    0.0    56   91.5     7    307.7     8.3   1007.8  0.00  
 205   23:40    0.0    56   91.8     6    305.7     7.7   1007.8  0.00  
 205   23:50    0.0    56   91.9     6    305.6     7.8   1007.8  0.00  
 206    0:00    0.0    56   92.2     6    307.8     7.0   1007.8  0.00  
 206    0:10    0.0    56   92.3     6    303.6     6.9   1007.5  0.00  
 206    0:20    0.0    56   92.6     6    304.3     7.0   1007.5  0.00  
 206    0:30    0.0    55   92.3     3    305.1     5.4   1007.5  0.00  
 206    0:40    0.0    54   92.7     4    293.7     5.8   1007.5  0.00  
 206    0:50    0.0    54   93.2     2    287.9     4.2   1007.5  0.00  
 206    1:00    0.0    54   93.7     1    247.4     2.4   1007.5  0.00  
 206    1:10    0.0    53   93.0     2    174.2     4.2   1007.1  0.00  
 206    1:20    0.0    53   94.6     4    166.2     4.1   1007.1  0.00  
 206    1:30    0.0    54   95.0     4    178.2     4.6   1007.1  0.00  
 206    1:40    0.0    54   94.1     5    180.3     6.1   1007.1  0.00  
 206    1:50    0.0    53   94.3     6    182.5     6.9   1007.1  0.00  
 206    2:00    0.0    53   94.7     6    178.0     6.9   1007.1  0.00  
 206    2:10    0.0    54   95.4     7    167.1     7.8   1007.1  0.00  
 206    2:20    0.0    54   95.4     7    170.3     7.6   1007.1  0.00  
 206    2:30    0.0    53   95.1     7    178.1     7.7   1007.1  0.00  
 206    2:40    0.0    53   95.3     7    177.8     8.0   1007.1  0.00  
 206    2:50    0.0    53   95.4     7    169.2     7.8   1007.1  0.00  
 206    3:00    0.0    53   95.7     7    167.7     8.1   1007.1  0.00  
 206    3:10    0.0    53   95.6     7    162.1     7.6   1007.1  0.00  
 206    3:20    0.0    54   95.7     8    157.7     8.2   1007.1  0.00  
 206    3:30    0.0    54   95.7     8    157.1     8.3   1007.1  0.00  
 206    3:40    0.0    54   95.6     7    167.1     8.2   1007.1  0.00  
 206    3:50    0.0    53   95.6     6    170.8     7.3   1007.1  0.00  
 206    4:00    0.0    53   95.9     6    165.9     6.5   1007.1  0.00  
 206    4:10    0.0    53   96.0     6    160.4     6.4   1007.1  0.00  
 206    4:20    0.0    53   96.1     6    155.2     7.0   1007.1  0.00  
 206    4:30    0.0    53   96.0     6    152.0     6.9   1007.1  0.00  
 206    4:40    0.0    53   96.1     6    146.8     6.9   1007.1  0.00  
 206    4:50    0.0    52   95.9     6    144.5     6.4   1007.1  0.00  
 206    5:00    0.0    52   96.1     4    115.9     5.1   1007.1  0.00  
 206    5:10    3.0    51   96.1     3    107.0     3.7   1007.1  0.00  
 206    5:20    7.0    51   96.5     3    123.1     4.1   1007.5  0.00  
 206    5:30   14.0    51   96.6     4    131.3     5.2   1007.5  0.00  
 206    5:40   36.0    52   96.8     4    127.1     5.1   1007.5  0.00  
 206    5:50   60.0    52   96.8     4    119.8     4.6   1007.5  0.00  
 206    6:00   90.0    53   97.0     4    118.2     4.2   1007.5  0.00  
 206    6:10  117.0    54   97.0     3    124.6     3.4   1007.8  0.00  
 206    6:20  142.0    56   97.0     2    143.7     4.0   1007.8  0.00  
 206    6:30  168.0    58   96.6     4    151.9     5.2   1007.8  0.00  
 206    6:40  198.0    58   95.7     3    149.7     4.2   1007.8  0.00  
 206    6:50  225.0    59   94.3     4    149.6     5.4   1007.8  0.00  
 206    7:00  254.0    60   92.8     5    155.6     6.4   1007.8  0.00  
 206    7:10  284.0    60   91.1     5    151.5     7.5   1008.1  0.00  
 206    7:20  311.0    61   89.3     4    171.2     6.4   1008.1  0.00  
 206    7:30  344.0    62   86.1     6    154.9     7.5   1008.5  0.00  
 206    7:40  376.0    62   83.5     6    148.8     8.2   1008.5  0.00  
 206    7:50  406.0    63   81.3     6    146.7     8.4   1008.5  0.00  
 206    8:00  435.0    64   79.6     6    147.7     8.4   1008.5  0.00  
 206    8:10  464.0    64   78.0     4    156.4     6.6   1008.5  0.00  
 206    8:20  494.0    66   75.9     4    171.2     6.3   1008.5  0.00  
 206    8:30  521.0    66   74.3     6    156.0     8.1   1008.5  0.00  
 206    8:40  549.0    67   72.9     5    168.4     7.2   1008.5  0.00  
 206    8:50  576.0    68   71.7     5    166.9     7.5   1008.5  0.00  
 206    9:00  602.0    68   70.7     5    182.3     8.0   1008.5  0.00  
 206    9:10  628.0    69   70.3     6    196.6     9.6   1008.5  0.00  
 206    9:20  653.0    69   69.6     5    209.6     9.2   1008.8  0.00  
 206    9:30  676.0    68   71.7     7    250.7    10.4   1008.8  0.00  
 206    9:40  699.0    68   73.5     7    250.9    10.0   1008.8  0.00  
 206    9:50  719.0    66   75.5     7    265.9     9.9   1008.8  0.00  
 206   10:00  738.0    66   76.2     6    250.7     9.5   1008.8  0.00  
 206   10:10  755.0    67   75.1     6    264.9     9.2   1008.8  0.00  
 206   10:20  773.0    67   74.7     6    264.6     9.1   1008.8  0.00  
 206   10:30  787.0    66   76.0     8    262.8    11.5   1008.8  0.00  
 206   10:40  802.0    66   76.7     8    264.3    10.5   1008.8  0.00  
 206   10:50  815.0    67   74.6     6    274.9     9.9   1009.1  0.00  
 206   11:00  826.0    66   75.2     7    273.8    10.5   1009.1  0.00  
 206   11:10  835.0    66   76.1     7    273.9    10.7   1009.1  0.00  
 206   11:20  844.0    67   74.9     7    270.4    10.5   1009.1  0.00  
 206   11:30  853.0    67   74.3     6    262.4    10.6   1009.1  0.00  
 206   11:40  860.0    68   73.4     6    264.2     8.8   1009.1  0.00  
 206   11:50  865.0    68   72.4     8    270.8    10.1   1009.1  0.00  
 206   12:00  849.0    67   73.5     7    275.7     9.8   1009.1  0.00  
 206   12:10  870.0    67   74.8     7    281.4    10.6   1009.1  0.00  
 206   12:20  870.0    66   74.5     7    284.5    10.7   1009.1  0.00  
 206   12:30  872.0    66   74.3     8    293.3    11.8   1009.1  0.00  
 206   12:40  869.0    67   72.7     8    292.7    11.1   1009.1  0.00  
 206   12:50  867.0    66   73.3     8    283.0    11.6   1009.1  0.00  
 206   13:00  865.0    66   72.0     8    288.6    10.8   1009.1  0.00  
 206   13:10  859.0    67   71.2     9    293.3    11.9   1009.1  0.00  
 206   13:20  852.0    66   72.2     9    301.5    11.1   1009.1  0.00  
 206   13:30  843.0    66   72.4     9    305.8    12.5   1009.1  0.00  
 206   13:40  835.0    65   73.3     9    300.4    12.8   1009.1  0.00  
 206   13:50  824.0    66   72.4    10    302.8    13.1   1009.1  0.00  
 206   14:00  812.0    65   72.7    11    311.1    13.3   1009.1  0.00  
 206   14:10  798.0    65   73.0    10    309.2    14.5   1008.8  0.00  
 206   14:20  783.0    64   75.4    10    304.3    13.3   1009.1  0.00  

Return to Pt. Reyes graphs page.


Western Regional Climate Center,wrcc@dri.edu